Aérodrome :
LOGIN :

S'inscrire | Disclaimer

   EN    FR    IT 

 










Légende :    VFR   VFR Marginal   IFR   IFR Intensif   IFR Très Intensif
Visi : 
Plafond : 
>= 8 km
>= 3000ft
5 à 8 km
1000 à 3000 ft
1500m à 5 km
500 à 1000 ft
800 à 1500m
200 à 500 ft
< 800m
< 200 ft
Symboles :   Orages  Brouillard  Fortes neiges  Fortes précipitations  Vent > 20 kt
SIGMETs :   Divers  Orages  Givrage  Turbulence  Onde Orograph.  Cendres Volcan.






- Altitude de l'aérodrome : 36 ft
- Code IATA : RIX


EVRA - Riga

DERNIER METAR :
  • 180250Z 22013KT 190V250 9999 BKN032 07/01 Q1002 R18/190095 NOSIG

METARs EXPIRÉS :
  • 180220Z 22014KT 180V240 9999 FEW034 BKN044 07/01 Q1003 R18/190095 NOSIG
  • 180150Z 22014G25KT 200V260 9999 OVC035 07/01 Q1003 R18/190095 NOSIG
  • 180120Z 22013G23KT 190V260 9999 BKN038 OVC045 08/01 Q1003 R18/190095 NOSIG
  • 180050Z 22013KT 190V250 9999 BKN038 BKN045 07/00 Q1003 R18/190095 NOSIG
  • 180020Z 21011KT 9999 OVC041 07/01 Q1003 R18/190095 NOSIG

TAF TAF EVRA
Valide du 18 à 03h jusqu'au 19 à 03h UTC


180201Z 1803/1903 22012KT 9999 BKN030
TEMPO 1812/1824 SCT020CB



MET'MAP, la Météo Aéronautique d'un coup d'oeil ! - Copyright ORBIFLY Décembre 2007 - Disclaimer

ORBIFLY MET'MAP TEAM :

Programmation & Développement : Alexandra Zaïnal
Sur une idée originale de : Baudouin d'Aumeries
Assistance à la programmation : Marc-Olivier Méhu
Soutien technique & logistique : Manuel Goepfert

Contact : metmap@orbifly.com




SOURCES & CREDITS :

   NOAA